sensor_id;sensor_type;location;lat;lon;timestamp;pressure;altitude;pressure_sealevel;temperature;humidity
32251;BME280;41295;48.518;9.206;2023-05-14T00:01:05;97178.75;;;13.01;77.55
32251;BME280;41295;48.518;9.206;2023-05-14T00:03:08;97176.16;;;13.01;77.58
32251;BME280;41295;48.518;9.206;2023-05-14T00:05:11;97171.81;;;12.99;77.27
32251;BME280;41295;48.518;9.206;2023-05-14T00:07:14;97166.66;;;12.98;77.42
32251;BME280;41295;48.518;9.206;2023-05-14T00:09:18;97169.28;;;12.98;77.67
32251;BME280;41295;48.518;9.206;2023-05-14T00:11:20;97160.56;;;12.97;77.62
32251;BME280;41295;48.518;9.206;2023-05-14T00:13:24;97168.50;;;12.96;77.43
32251;BME280;41295;48.518;9.206;2023-05-14T00:15:26;97173.72;;;12.96;77.52
32251;BME280;41295;48.518;9.206;2023-05-14T00:17:29;97165.97;;;12.94;77.38
32251;BME280;41295;48.518;9.206;2023-05-14T00:19:31;97164.19;;;12.95;77.23
32251;BME280;41295;48.518;9.206;2023-05-14T00:21:34;97160.72;;;12.94;77.07
32251;BME280;41295;48.518;9.206;2023-05-14T00:23:37;97165.09;;;12.94;77.10
32251;BME280;41295;48.518;9.206;2023-05-14T00:25:40;97161.59;;;12.95;77.03
32251;BME280;41295;48.518;9.206;2023-05-14T00:27:43;97159.94;;;12.92;77.21
32251;BME280;41295;48.518;9.206;2023-05-14T00:29:46;97154.78;;;12.91;77.45
32251;BME280;41295;48.518;9.206;2023-05-14T00:31:48;97152.19;;;12.91;77.41
32251;BME280;41295;48.518;9.206;2023-05-14T00:33:51;97143.47;;;12.90;77.61
32251;BME280;41295;48.518;9.206;2023-05-14T00:35:54;97144.41;;;12.89;77.53
32251;BME280;41295;48.518;9.206;2023-05-14T00:37:57;97144.66;;;12.84;77.15
32251;BME280;41295;48.518;9.206;2023-05-14T00:39:59;97137.69;;;12.83;77.45
32251;BME280;41295;48.518;9.206;2023-05-14T00:42:03;97135.09;;;12.83;77.42
32251;BME280;41295;48.518;9.206;2023-05-14T00:44:06;97135.09;;;12.83;77.75
32251;BME280;41295;48.518;9.206;2023-05-14T00:46:09;97140.31;;;12.83;77.89
32251;BME280;41295;48.518;9.206;2023-05-14T00:48:12;97130.72;;;12.84;78.01
32251;BME280;41295;48.518;9.206;2023-05-14T00:50:15;97127.16;;;12.85;77.38
32251;BME280;41295;48.518;9.206;2023-05-14T00:52:19;97125.47;;;12.84;77.68
32251;BME280;41295;48.518;9.206;2023-05-14T00:54:22;97126.34;;;12.84;77.79
32251;BME280;41295;48.518;9.206;2023-05-14T00:56:25;97127.22;;;12.83;77.84
32251;BME280;41295;48.518;9.206;2023-05-14T00:58:30;97130.72;;;12.84;77.77
32251;BME280;41295;48.518;9.206;2023-05-14T01:00:33;97119.38;;;12.83;77.99
32251;BME280;41295;48.518;9.206;2023-05-14T01:02:36;97127.22;;;12.83;77.84
32251;BME280;41295;48.518;9.206;2023-05-14T01:04:39;97129.00;;;12.83;77.71
32251;BME280;41295;48.518;9.206;2023-05-14T01:06:49;97125.56;;;12.82;77.74
32251;BME280;41295;48.518;9.206;2023-05-14T01:09:00;97129.00;;;12.83;77.49
32251;BME280;41295;48.518;9.206;2023-05-14T01:11:08;97123.84;;;12.81;77.14
32251;BME280;41295;48.518;9.206;2023-05-14T01:13:18;97122.09;;;12.82;77.61
32251;BME280;41295;48.518;9.206;2023-05-14T01:15:28;97126.38;;;12.83;77.21
32251;BME280;41295;48.518;9.206;2023-05-14T01:17:32;97117.78;;;12.81;77.56
32251;BME280;41295;48.518;9.206;2023-05-14T01:19:41;97112.56;;;12.81;77.76
32251;BME280;41295;48.518;9.206;2023-05-14T01:21:45;97108.22;;;12.80;77.87
32251;BME280;41295;48.518;9.206;2023-05-14T01:23:48;97108.16;;;12.81;77.46
32251;BME280;41295;48.518;9.206;2023-05-14T01:25:50;97102.91;;;12.81;77.32
32251;BME280;41295;48.518;9.206;2023-05-14T01:27:58;97104.78;;;12.79;77.42
32251;BME280;41295;48.518;9.206;2023-05-14T01:30:08;97110.06;;;12.78;77.72
32251;BME280;41295;48.518;9.206;2023-05-14T01:32:14;97111.78;;;12.79;77.79
32251;BME280;41295;48.518;9.206;2023-05-14T01:34:21;97111.69;;;12.80;77.88
32251;BME280;41295;48.518;9.206;2023-05-14T01:36:24;97111.00;;;12.77;77.79
32251;BME280;41295;48.518;9.206;2023-05-14T01:38:29;97111.00;;;12.77;78.17
32251;BME280;41295;48.518;9.206;2023-05-14T01:40:35;97116.22;;;12.77;78.14
32251;BME280;41295;48.518;9.206;2023-05-14T01:42:38;97111.94;;;12.75;77.92
32251;BME280;41295;48.518;9.206;2023-05-14T01:44:41;97115.44;;;12.74;77.91
32251;BME280;41295;48.518;9.206;2023-05-14T01:46:44;97115.53;;;12.73;77.84
32251;BME280;41295;48.518;9.206;2023-05-14T01:48:47;97123.38;;;12.73;77.73
32251;BME280;41295;48.518;9.206;2023-05-14T01:50:49;97119.91;;;12.72;77.78
32251;BME280;41295;48.518;9.206;2023-05-14T01:52:52;97114.69;;;12.72;77.77
32251;BME280;41295;48.518;9.206;2023-05-14T01:54:58;97107.75;;;12.71;77.47
32251;BME280;41295;48.518;9.206;2023-05-14T01:57:01;97106.91;;;12.71;77.53
32251;BME280;41295;48.518;9.206;2023-05-14T01:59:03;97106.06;;;12.70;77.42
32251;BME280;41295;48.518;9.206;2023-05-14T02:01:06;97103.50;;;12.69;77.46
32251;BME280;41295;48.518;9.206;2023-05-14T02:03:09;97107.06;;;12.68;77.72
32251;BME280;41295;48.518;9.206;2023-05-14T02:05:12;97107.06;;;12.68;77.48
32251;BME280;41295;48.518;9.206;2023-05-14T02:07:14;97108.00;;;12.67;77.51
32251;BME280;41295;48.518;9.206;2023-05-14T02:09:18;97105.38;;;12.67;77.09
32251;BME280;41295;48.518;9.206;2023-05-14T02:11:22;97111.53;;;12.66;77.44
32251;BME280;41295;48.518;9.206;2023-05-14T02:13:25;97110.75;;;12.63;77.55
32251;BME280;41295;48.518;9.206;2023-05-14T02:15:27;97109.06;;;12.62;77.39
32251;BME280;41295;48.518;9.206;2023-05-14T02:17:30;97108.22;;;12.62;77.15
32251;BME280;41295;48.518;9.206;2023-05-14T02:19:33;97114.28;;;12.62;77.09
32251;BME280;41295;48.518;9.206;2023-05-14T02:21:35;97112.53;;;12.63;76.78
32251;BME280;41295;48.518;9.206;2023-05-14T02:23:38;97104.81;;;12.60;76.58
32251;BME280;41295;48.518;9.206;2023-05-14T02:25:42;97112.66;;;12.60;76.34
32251;BME280;41295;48.518;9.206;2023-05-14T02:27:46;97116.28;;;12.57;76.75
32251;BME280;41295;48.518;9.206;2023-05-14T02:29:49;97108.53;;;12.56;76.74
32251;BME280;41295;48.518;9.206;2023-05-14T02:31:52;97104.97;;;12.57;76.56
32251;BME280;41295;48.518;9.206;2023-05-14T02:33:55;97111.13;;;12.56;76.30
32251;BME280;41295;48.518;9.206;2023-05-14T02:35:57;97111.22;;;12.54;76.17
32251;BME280;41295;48.518;9.206;2023-05-14T02:38:00;97120.97;;;12.50;76.68
32251;BME280;41295;48.518;9.206;2023-05-14T02:40:03;97108.81;;;12.49;76.75
32251;BME280;41295;48.518;9.206;2023-05-14T02:42:06;97114.03;;;12.49;77.05
32251;BME280;41295;48.518;9.206;2023-05-14T02:44:10;97106.97;;;12.51;77.25
32251;BME280;41295;48.518;9.206;2023-05-14T02:46:13;97109.56;;;12.51;77.48
32251;BME280;41295;48.518;9.206;2023-05-14T02:48:16;97118.28;;;12.52;77.81
32251;BME280;41295;48.518;9.206;2023-05-14T02:50:18;97116.50;;;12.53;78.11
32251;BME280;41295;48.518;9.206;2023-05-14T02:52:21;97115.59;;;12.54;78.19
32251;BME280;41295;48.518;9.206;2023-05-14T02:54:24;97105.13;;;12.54;78.18
32251;BME280;41295;48.518;9.206;2023-05-14T02:56:26;97110.19;;;12.57;78.32
32251;BME280;41295;48.518;9.206;2023-05-14T02:58:29;97118.03;;;12.57;78.15
32251;BME280;41295;48.518;9.206;2023-05-14T03:00:33;97107.59;;;12.57;78.32
32251;BME280;41295;48.518;9.206;2023-05-14T03:02:36;97114.53;;;12.58;78.82
32251;BME280;41295;48.518;9.206;2023-05-14T03:04:39;97111.91;;;12.58;78.71
32251;BME280;41295;48.518;9.206;2023-05-14T03:06:42;97115.44;;;12.57;78.55
32251;BME280;41295;48.518;9.206;2023-05-14T03:08:44;97102.34;;;12.57;78.75
32251;BME280;41295;48.518;9.206;2023-05-14T03:10:47;97113.75;;;12.56;78.53
32251;BME280;41295;48.518;9.206;2023-05-14T03:12:49;97109.50;;;12.53;78.53
32251;BME280;41295;48.518;9.206;2023-05-14T03:14:52;97111.34;;;12.51;78.88
32251;BME280;41295;48.518;9.206;2023-05-14T03:16:56;97107.81;;;12.52;78.26
32251;BME280;41295;48.518;9.206;2023-05-14T03:18:58;97119.19;;;12.51;78.63
32251;BME280;41295;48.518;9.206;2023-05-14T03:21:01;97113.06;;;12.52;79.23
32251;BME280;41295;48.518;9.206;2023-05-14T03:23:04;97114.81;;;12.51;79.41
32251;BME280;41295;48.518;9.206;2023-05-14T03:25:07;97105.13;;;12.54;79.76
32251;BME280;41295;48.518;9.206;2023-05-14T03:27:10;97110.28;;;12.55;79.83
32251;BME280;41295;48.518;9.206;2023-05-14T03:29:13;97113.75;;;12.56;79.82
32251;BME280;41295;48.518;9.206;2023-05-14T03:31:18;97104.13;;;12.56;79.69
32251;BME280;41295;48.518;9.206;2023-05-14T03:33:22;97109.28;;;12.58;79.46
32251;BME280;41295;48.518;9.206;2023-05-14T03:35:25;97100.53;;;12.59;79.56
32251;BME280;41295;48.518;9.206;2023-05-14T03:37:27;97102.28;;;12.58;79.69
32251;BME280;41295;48.518;9.206;2023-05-14T03:39:30;97108.38;;;12.59;79.40
32251;BME280;41295;48.518;9.206;2023-05-14T03:41:33;97110.97;;;12.59;79.40
32251;BME280;41295;48.518;9.206;2023-05-14T03:43:36;97104.88;;;12.58;78.86
32251;BME280;41295;48.518;9.206;2023-05-14T03:45:38;97106.72;;;12.56;78.49
32251;BME280;41295;48.518;9.206;2023-05-14T03:47:41;97111.13;;;12.56;78.97
32251;BME280;41295;48.518;9.206;2023-05-14T03:49:45;97108.44;;;12.57;79.21
32251;BME280;41295;48.518;9.206;2023-05-14T03:51:48;97110.34;;;12.54;79.26
32251;BME280;41295;48.518;9.206;2023-05-14T03:53:50;97103.41;;;12.53;79.59
32251;BME280;41295;48.518;9.206;2023-05-14T03:55:53;97097.34;;;12.52;79.35
32251;BME280;41295;48.518;9.206;2023-05-14T03:57:55;97109.50;;;12.53;79.45
32251;BME280;41295;48.518;9.206;2023-05-14T03:59:58;97108.59;;;12.54;79.26
32251;BME280;41295;48.518;9.206;2023-05-14T04:02:01;97109.41;;;12.55;79.33
32251;BME280;41295;48.518;9.206;2023-05-14T04:04:03;97105.13;;;12.54;79.12
32251;BME280;41295;48.518;9.206;2023-05-14T04:06:08;97106.81;;;12.55;79.31
32251;BME280;41295;48.518;9.206;2023-05-14T04:08:10;97104.19;;;12.55;79.27
32251;BME280;41295;48.518;9.206;2023-05-14T04:10:13;97111.22;;;12.54;79.42
32251;BME280;41295;48.518;9.206;2023-05-14T04:12:15;97105.13;;;12.54;79.31
32251;BME280;41295;48.518;9.206;2023-05-14T04:14:20;97100.75;;;12.54;79.47
32251;BME280;41295;48.518;9.206;2023-05-14T04:16:23;97100.81;;;12.53;79.44
32251;BME280;41295;48.518;9.206;2023-05-14T04:18:26;97099.03;;;12.53;79.45
32251;BME280;41295;48.518;9.206;2023-05-14T04:20:28;97106.81;;;12.55;79.53
32251;BME280;41295;48.518;9.206;2023-05-14T04:22:32;97099.81;;;12.55;79.47
32251;BME280;41295;48.518;9.206;2023-05-14T04:24:35;97098.06;;;12.56;79.30
32251;BME280;41295;48.518;9.206;2023-05-14T04:26:37;97094.59;;;12.55;79.56
32251;BME280;41295;48.518;9.206;2023-05-14T04:28:40;97094.59;;;12.55;79.26
32251;BME280;41295;48.518;9.206;2023-05-14T04:30:43;97098.06;;;12.56;79.19
32251;BME280;41295;48.518;9.206;2023-05-14T04:32:45;97099.81;;;12.55;79.35
32251;BME280;41295;48.518;9.206;2023-05-14T04:34:48;97101.56;;;12.55;79.44
32251;BME280;41295;48.518;9.206;2023-05-14T04:36:51;97100.69;;;12.56;79.43
32251;BME280;41295;48.518;9.206;2023-05-14T04:38:55;97098.06;;;12.56;79.37
32251;BME280;41295;48.518;9.206;2023-05-14T04:41:00;97100.69;;;12.56;79.64
32251;BME280;41295;48.518;9.206;2023-05-14T04:43:03;97098.84;;;12.58;79.70
32251;BME280;41295;48.518;9.206;2023-05-14T04:45:06;97104.97;;;12.57;79.57
32251;BME280;41295;48.518;9.206;2023-05-14T04:47:09;97097.03;;;12.58;79.77
32251;BME280;41295;48.518;9.206;2023-05-14T04:49:12;97086.59;;;12.58;79.70
32251;BME280;41295;48.518;9.206;2023-05-14T04:51:15;97091.00;;;12.58;79.92
32251;BME280;41295;48.518;9.206;2023-05-14T04:53:18;97102.28;;;12.58;79.98
32251;BME280;41295;48.518;9.206;2023-05-14T04:55:21;97099.59;;;12.60;79.87
32251;BME280;41295;48.518;9.206;2023-05-14T04:57:24;97104.81;;;12.60;79.88
32251;BME280;41295;48.518;9.206;2023-05-14T04:59:27;97106.53;;;12.61;79.77
32251;BME280;41295;48.518;9.206;2023-05-14T05:01:29;97102.19;;;12.60;79.79
32251;BME280;41295;48.518;9.206;2023-05-14T05:03:32;97101.38;;;12.59;79.93
32251;BME280;41295;48.518;9.206;2023-05-14T05:05:35;97102.19;;;12.60;80.21
32251;BME280;41295;48.518;9.206;2023-05-14T05:07:37;97106.53;;;12.61;79.85
32251;BME280;41295;48.518;9.206;2023-05-14T05:09:41;97101.22;;;12.62;79.68
32251;BME280;41295;48.518;9.206;2023-05-14T05:11:45;97108.13;;;12.63;79.77
32251;BME280;41295;48.518;9.206;2023-05-14T05:13:48;97105.44;;;12.65;79.71
32251;BME280;41295;48.518;9.206;2023-05-14T05:15:50;97104.53;;;12.66;79.71
32251;BME280;41295;48.518;9.206;2023-05-14T05:17:53;97102.78;;;12.67;79.92
32251;BME280;41295;48.518;9.206;2023-05-14T05:19:56;97101.91;;;12.66;79.67
32251;BME280;41295;48.518;9.206;2023-05-14T05:21:58;97106.22;;;12.67;79.78
32251;BME280;41295;48.518;9.206;2023-05-14T05:24:01;97099.22;;;12.68;79.52
32251;BME280;41295;48.518;9.206;2023-05-14T05:26:04;97107.91;;;12.68;79.81
32251;BME280;41295;48.518;9.206;2023-05-14T05:28:07;97105.31;;;12.68;79.84
32251;BME280;41295;48.518;9.206;2023-05-14T05:30:11;97103.50;;;12.69;79.79
32251;BME280;41295;48.518;9.206;2023-05-14T05:32:13;97110.53;;;12.68;79.92
32251;BME280;41295;48.518;9.206;2023-05-14T05:34:16;97109.59;;;12.69;79.74
32251;BME280;41295;48.518;9.206;2023-05-14T05:36:19;97105.31;;;12.68;79.95
32251;BME280;41295;48.518;9.206;2023-05-14T05:38:22;97109.59;;;12.69;79.69
32251;BME280;41295;48.518;9.206;2023-05-14T05:40:25;97107.00;;;12.69;80.03
32251;BME280;41295;48.518;9.206;2023-05-14T05:42:27;97100.91;;;12.69;79.94
32251;BME280;41295;48.518;9.206;2023-05-14T05:44:31;97104.38;;;12.69;80.01
32251;BME280;41295;48.518;9.206;2023-05-14T05:46:34;97108.75;;;12.69;80.02
32251;BME280;41295;48.518;9.206;2023-05-14T05:48:37;97104.38;;;12.69;80.17
32251;BME280;41295;48.518;9.206;2023-05-14T05:50:39;97100.91;;;12.69;80.00
32251;BME280;41295;48.518;9.206;2023-05-14T05:52:43;97100.06;;;12.68;79.81
32251;BME280;41295;48.518;9.206;2023-05-14T05:54:45;97100.91;;;12.69;80.03
32251;BME280;41295;48.518;9.206;2023-05-14T05:56:48;97100.00;;;12.70;80.08
32251;BME280;41295;48.518;9.206;2023-05-14T05:58:51;97103.38;;;12.72;80.47
32251;BME280;41295;48.518;9.206;2023-05-14T06:00:54;97096.44;;;12.71;80.48
32251;BME280;41295;48.518;9.206;2023-05-14T06:02:58;97099.06;;;12.71;80.43
32251;BME280;41295;48.518;9.206;2023-05-14T06:05:00;97101.69;;;12.71;80.31
32251;BME280;41295;48.518;9.206;2023-05-14T06:07:03;97098.97;;;12.72;80.50
32251;BME280;41295;48.518;9.206;2023-05-14T06:09:06;97107.75;;;12.71;80.45
32251;BME280;41295;48.518;9.206;2023-05-14T06:11:09;97100.78;;;12.72;80.46
32251;BME280;41295;48.518;9.206;2023-05-14T06:13:11;97106.81;;;12.72;80.67
32251;BME280;41295;48.518;9.206;2023-05-14T06:15:14;97104.22;;;12.72;80.50
32251;BME280;41295;48.518;9.206;2023-05-14T06:17:18;97106.81;;;12.72;80.45
32251;BME280;41295;48.518;9.206;2023-05-14T06:19:21;97110.31;;;12.73;80.45
32251;BME280;41295;48.518;9.206;2023-05-14T06:21:24;97106.81;;;12.72;80.30
32251;BME280;41295;48.518;9.206;2023-05-14T06:23:26;97104.22;;;12.72;80.05
32251;BME280;41295;48.518;9.206;2023-05-14T06:25:31;97106.81;;;12.72;80.03
32251;BME280;41295;48.518;9.206;2023-05-14T06:27:33;97101.50;;;12.74;79.95
32251;BME280;41295;48.518;9.206;2023-05-14T06:29:36;97106.81;;;12.72;79.83
32251;BME280;41295;48.518;9.206;2023-05-14T06:31:38;97105.94;;;12.73;80.24
32251;BME280;41295;48.518;9.206;2023-05-14T06:33:42;97101.50;;;12.74;80.23
32251;BME280;41295;48.518;9.206;2023-05-14T06:35:45;97102.38;;;12.74;80.34
32251;BME280;41295;48.518;9.206;2023-05-14T06:37:48;97109.31;;;12.75;80.57
32251;BME280;41295;48.518;9.206;2023-05-14T06:39:50;97111.00;;;12.77;80.53
32251;BME280;41295;48.518;9.206;2023-05-14T06:41:55;97110.13;;;12.76;80.52
32251;BME280;41295;48.518;9.206;2023-05-14T06:43:58;97111.00;;;12.77;80.44
32251;BME280;41295;48.518;9.206;2023-05-14T06:46:00;97112.69;;;12.78;80.40
32251;BME280;41295;48.518;9.206;2023-05-14T06:48:03;97120.53;;;12.78;80.61
32251;BME280;41295;48.518;9.206;2023-05-14T06:50:08;97109.16;;;12.79;80.56
32251;BME280;41295;48.518;9.206;2023-05-14T06:52:11;97110.22;;;12.74;79.95
32251;BME280;41295;48.518;9.206;2023-05-14T06:54:16;97111.06;;;12.75;80.29
32251;BME280;41295;48.518;9.206;2023-05-14T06:56:21;97104.09;;;12.75;80.31
32251;BME280;41295;48.518;9.206;2023-05-14T06:58:23;97110.22;;;12.74;80.43
32251;BME280;41295;48.518;9.206;2023-05-14T07:00:27;97104.09;;;12.75;80.65
32251;BME280;41295;48.518;9.206;2023-05-14T07:02:29;97106.69;;;12.75;80.86
32251;BME280;41295;48.518;9.206;2023-05-14T07:04:32;97104.09;;;12.75;80.58
32251;BME280;41295;48.518;9.206;2023-05-14T07:06:36;97103.16;;;12.77;80.55
32251;BME280;41295;48.518;9.206;2023-05-14T07:08:39;97106.63;;;12.77;80.76
32251;BME280;41295;48.518;9.206;2023-05-14T07:10:42;97103.94;;;12.79;80.68
32251;BME280;41295;48.518;9.206;2023-05-14T07:12:44;97105.59;;;12.80;80.66
32251;BME280;41295;48.518;9.206;2023-05-14T07:14:47;97106.47;;;12.80;80.84
32251;BME280;41295;48.518;9.206;2023-05-14T07:16:50;97116.84;;;12.82;80.70
32251;BME280;41295;48.518;9.206;2023-05-14T07:18:53;97112.47;;;12.82;80.73
32251;BME280;41295;48.518;9.206;2023-05-14T07:20:55;97110.69;;;12.83;80.57
32251;BME280;41295;48.518;9.206;2023-05-14T07:22:59;97112.38;;;12.84;80.34
32251;BME280;41295;48.518;9.206;2023-05-14T07:25:02;97111.53;;;12.83;80.28
32251;BME280;41295;48.518;9.206;2023-05-14T07:27:05;97108.84;;;12.85;80.35
32251;BME280;41295;48.518;9.206;2023-05-14T07:29:08;97106.47;;;12.80;79.58
32251;BME280;41295;48.518;9.206;2023-05-14T07:31:11;97105.44;;;12.83;80.11
32251;BME280;41295;48.518;9.206;2023-05-14T07:33:14;97102.84;;;12.83;80.32
32251;BME280;41295;48.518;9.206;2023-05-14T07:35:16;97103.75;;;12.82;80.51
32251;BME280;41295;48.518;9.206;2023-05-14T07:37:19;97104.91;;;12.76;79.79
32251;BME280;41295;48.518;9.206;2023-05-14T07:39:26;97098.69;;;12.79;80.85
32251;BME280;41295;48.518;9.206;2023-05-14T07:41:28;97102.91;;;12.81;81.03
32251;BME280;41295;48.518;9.206;2023-05-14T07:43:31;97103.75;;;12.82;80.89
32251;BME280;41295;48.518;9.206;2023-05-14T07:45:35;97094.97;;;12.83;81.08
32251;BME280;41295;48.518;9.206;2023-05-14T07:47:38;97103.59;;;12.85;80.75
32251;BME280;41295;48.518;9.206;2023-05-14T07:49:41;97093.06;;;12.86;80.96
32251;BME280;41295;48.518;9.206;2023-05-14T07:51:43;97094.78;;;12.87;80.66
32251;BME280;41295;48.518;9.206;2023-05-14T07:53:46;97086.75;;;12.91;80.80
32251;BME280;41295;48.518;9.206;2023-05-14T07:55:50;97090.22;;;12.91;80.71
32251;BME280;41295;48.518;9.206;2023-05-14T07:57:53;97083.25;;;12.92;80.59
32251;BME280;41295;48.518;9.206;2023-05-14T07:59:55;97087.44;;;12.94;80.91
32251;BME280;41295;48.518;9.206;2023-05-14T08:01:58;97088.22;;;12.96;80.86
32251;BME280;41295;48.518;9.206;2023-05-14T08:04:01;97089.00;;;12.98;80.95
32251;BME280;41295;48.518;9.206;2023-05-14T08:06:04;97080.22;;;12.99;80.64
32251;BME280;41295;48.518;9.206;2023-05-14T08:08:09;97085.28;;;13.03;80.48
32251;BME280;41295;48.518;9.206;2023-05-14T08:10:12;97087.78;;;13.06;80.53
32251;BME280;41295;48.518;9.206;2023-05-14T08:12:16;97084.06;;;13.10;80.55
32251;BME280;41295;48.518;9.206;2023-05-14T08:14:19;97088.47;;;13.09;80.02
32251;BME280;41295;48.518;9.206;2023-05-14T08:16:22;97086.75;;;13.08;79.36
32251;BME280;41295;48.518;9.206;2023-05-14T08:18:26;97080.53;;;13.11;79.58
32251;BME280;41295;48.518;9.206;2023-05-14T08:20:29;97092.69;;;13.12;79.43
32251;BME280;41295;48.518;9.206;2023-05-14T08:22:31;97082.13;;;13.14;79.10
32251;BME280;41295;48.518;9.206;2023-05-14T08:24:34;97082.00;;;13.17;79.23
32251;BME280;41295;48.518;9.206;2023-05-14T08:26:37;97085.34;;;13.19;79.10
32251;BME280;41295;48.518;9.206;2023-05-14T08:28:41;97081.75;;;13.21;78.90
32251;BME280;41295;48.518;9.206;2023-05-14T08:30:43;97080.72;;;13.24;78.97
32251;BME280;41295;48.518;9.206;2023-05-14T08:32:46;97086.59;;;13.29;78.87
32251;BME280;41295;48.518;9.206;2023-05-14T08:34:49;97077.81;;;13.30;78.96
32251;BME280;41295;48.518;9.206;2023-05-14T08:36:52;97081.34;;;13.29;79.23
32251;BME280;41295;48.518;9.206;2023-05-14T08:38:54;97078.56;;;13.32;79.34
32251;BME280;41295;48.518;9.206;2023-05-14T08:40:58;97080.94;;;13.37;79.38
32251;BME280;41295;48.518;9.206;2023-05-14T08:43:01;97084.72;;;13.31;78.57
32251;BME280;41295;48.518;9.206;2023-05-14T08:45:09;97082.56;;;13.40;78.54
32251;BME280;41295;48.518;9.206;2023-05-14T08:47:14;97081.53;;;13.42;78.44
32251;BME280;41295;48.518;9.206;2023-05-14T08:49:25;97083.09;;;13.46;78.30
32251;BME280;41295;48.518;9.206;2023-05-14T08:51:29;97081.22;;;13.49;78.11
32251;BME280;41295;48.518;9.206;2023-05-14T08:53:31;97087.19;;;13.52;78.01
32251;BME280;41295;48.518;9.206;2023-05-14T08:55:35;97086.09;;;13.56;77.70
32251;BME280;41295;48.518;9.206;2023-05-14T08:57:38;97087.78;;;13.57;77.49
32251;BME280;41295;48.518;9.206;2023-05-14T08:59:41;97085.84;;;13.61;77.21
32251;BME280;41295;48.518;9.206;2023-05-14T09:01:46;97084.84;;;13.64;77.10
32251;BME280;41295;48.518;9.206;2023-05-14T09:03:50;97077.75;;;13.66;76.75
32251;BME280;41295;48.518;9.206;2023-05-14T09:05:54;97081.31;;;13.65;76.73
32251;BME280;41295;48.518;9.206;2023-05-14T09:08:00;97070.66;;;13.68;76.27
32251;BME280;41295;48.518;9.206;2023-05-14T09:10:03;97072.09;;;13.74;76.41
32251;BME280;41295;48.518;9.206;2023-05-14T09:12:07;97069.22;;;13.78;76.51
32251;BME280;41295;48.518;9.206;2023-05-14T09:14:10;97067.63;;;13.76;76.14
32251;BME280;41295;48.518;9.206;2023-05-14T09:16:13;97061.09;;;13.83;76.52
32251;BME280;41295;48.518;9.206;2023-05-14T09:18:18;97066.09;;;13.88;76.71
32251;BME280;41295;48.518;9.206;2023-05-14T09:20:21;97065.34;;;13.86;76.27
32251;BME280;41295;48.518;9.206;2023-05-14T09:22:29;97065.06;;;13.90;76.36
32251;BME280;41295;48.518;9.206;2023-05-14T09:24:33;97065.75;;;13.94;76.13
32251;BME280;41295;48.518;9.206;2023-05-14T09:26:35;97070.00;;;13.97;75.81
32251;BME280;41295;48.518;9.206;2023-05-14T09:28:38;97061.97;;;14.00;75.50
32251;BME280;41295;48.518;9.206;2023-05-14T09:30:41;97060.00;;;14.03;75.29
32251;BME280;41295;48.518;9.206;2023-05-14T09:32:47;97061.53;;;14.07;75.44
32251;BME280;41295;48.518;9.206;2023-05-14T09:34:52;97054.34;;;14.11;75.40
32251;BME280;41295;48.518;9.206;2023-05-14T09:36:55;97051.56;;;14.14;75.15
32251;BME280;41295;48.518;9.206;2023-05-14T09:38:59;97053.31;;;14.14;74.21
32251;BME280;41295;48.518;9.206;2023-05-14T09:41:04;97052.16;;;14.19;74.30
32251;BME280;41295;48.518;9.206;2023-05-14T09:43:07;97058.91;;;14.24;74.24
32251;BME280;41295;48.518;9.206;2023-05-14T09:45:10;97050.88;;;14.27;74.00
32251;BME280;41295;48.518;9.206;2023-05-14T09:47:13;97049.84;;;14.29;73.96
32251;BME280;41295;48.518;9.206;2023-05-14T09:49:16;97052.56;;;14.28;73.65
32251;BME280;41295;48.518;9.206;2023-05-14T09:51:20;97048.06;;;14.30;73.32
32251;BME280;41295;48.518;9.206;2023-05-14T09:53:23;97052.41;;;14.31;72.42
32251;BME280;41295;48.518;9.206;2023-05-14T09:55:26;97046.78;;;14.37;72.53
32251;BME280;41295;48.518;9.206;2023-05-14T09:57:29;97051.94;;;14.39;72.78
32251;BME280;41295;48.518;9.206;2023-05-14T09:59:32;97044.75;;;14.42;73.06
32251;BME280;41295;48.518;9.206;2023-05-14T10:01:35;97049.00;;;14.45;73.24
32251;BME280;41295;48.518;9.206;2023-05-14T10:03:38;97040.94;;;14.48;73.09
32251;BME280;41295;48.518;9.206;2023-05-14T10:05:41;97040.75;;;14.51;72.94
32251;BME280;41295;48.518;9.206;2023-05-14T10:07:47;97038.97;;;14.52;72.65
32251;BME280;41295;48.518;9.206;2023-05-14T10:09:56;97039.75;;;14.54;72.48
32251;BME280;41295;48.518;9.206;2023-05-14T10:12:01;97037.03;;;14.55;72.33
32251;BME280;41295;48.518;9.206;2023-05-14T10:14:07;97036.06;;;14.57;72.33
32251;BME280;41295;48.518;9.206;2023-05-14T10:16:13;97035.25;;;14.56;72.30
32251;BME280;41295;48.518;9.206;2023-05-14T10:18:18;97034.97;;;14.61;72.41
32251;BME280;41295;48.518;9.206;2023-05-14T10:20:25;97033.78;;;14.66;72.39
32251;BME280;41295;48.518;9.206;2023-05-14T10:22:31;97030.13;;;14.69;72.97
32251;BME280;41295;48.518;9.206;2023-05-14T10:24:36;97029.28;;;14.69;72.08
32251;BME280;41295;48.518;9.206;2023-05-14T10:26:39;97020.28;;;14.73;72.24
32251;BME280;41295;48.518;9.206;2023-05-14T10:28:42;97020.84;;;14.78;71.30
32251;BME280;41295;48.518;9.206;2023-05-14T10:30:45;97031.97;;;14.83;71.31
32251;BME280;41295;48.518;9.206;2023-05-14T10:32:48;97019.41;;;14.88;71.26
32251;BME280;41295;48.518;9.206;2023-05-14T10:34:51;97014.81;;;14.92;71.06
32251;BME280;41295;48.518;9.206;2023-05-14T10:36:58;97021.59;;;14.96;70.82
32251;BME280;41295;48.518;9.206;2023-05-14T10:39:02;97024.13;;;14.98;70.11
32251;BME280;41295;48.518;9.206;2023-05-14T10:41:09;97016.53;;;14.93;69.64
32251;BME280;41295;48.518;9.206;2023-05-14T10:43:13;97021.59;;;14.96;69.95
32251;BME280;41295;48.518;9.206;2023-05-14T10:45:17;97018.59;;;15.02;70.25
32251;BME280;41295;48.518;9.206;2023-05-14T10:47:20;97006.16;;;15.06;70.66
32251;BME280;41295;48.518;9.206;2023-05-14T10:49:23;97013.81;;;15.09;69.94
32251;BME280;41295;48.518;9.206;2023-05-14T10:51:47;97008.28;;;15.14;69.86
32251;BME280;41295;48.518;9.206;2023-05-14T10:53:49;97006.41;;;15.16;69.75